Time;durP1;ratioP1;P1;durP2;ratioP2;P2;SDS_P1;SDS_P2;PMS_P1;PMS_P2;Temp;Humidity;BMP_temperature;BMP_pressure;BME280_temperature;BME280_humidity;BME280_pressure;Samples;Min_cycle;Max_cycle;Signal;HPM_P1;HPM_P2
2023/04/24 00:00:19;;;;;;;22.10;8.38;;;;;;;;;;5052326;28;20103;-71
2023/04/24 00:02:46;;;;;;;18.42;7.88;;;;;;;;;;5046092;28;20116;-72
2023/04/24 00:05:13;;;;;;;15.70;7.93;;;;;;;;;;5046774;28;20064;-71
2023/04/24 00:07:39;;;;;;;17.40;7.68;;;;;;;;;;5045766;28;20041;-71
2023/04/24 00:10:05;;;;;;;17.17;7.70;;;;;;;;;;5047219;28;20032;-71
2023/04/24 00:12:30;;;;;;;19.35;8.05;;;;;;;;;;5046482;28;20028;-72
2023/04/24 00:14:56;;;;;;;21.42;8.20;;;;;;;;;;5046832;28;20111;-71
2023/04/24 00:17:21;;;;;;;14.30;7.88;;;;;;;;;;5028869;28;20506;-72
2023/04/24 00:19:47;;;;;;;20.85;8.00;;;;;;;;;;5025994;28;20631;-71
2023/04/24 00:22:14;;;;;;;19.55;8.00;;;;;;;;;;5027617;28;20060;-71
2023/04/24 00:24:40;;;;;;;20.55;7.47;;;;;;;;;;5036162;28;20492;-71
2023/04/24 00:27:05;;;;;;;19.02;7.78;;;;;;;;;;5066577;28;20478;-71
2023/04/24 00:29:30;;;;;;;16.73;8.02;;;;;;;;;;5067189;28;20044;-72
2023/04/24 00:31:56;;;;;;;23.70;9.15;;;;;;;;;;5067028;28;20311;-71
2023/04/24 00:34:21;;;;;;;20.83;7.78;;;;;;;;;;5054997;28;20056;-71
2023/04/24 00:36:48;;;;;;;19.38;8.23;;;;;;;;;;5046375;28;20031;-71
2023/04/24 00:39:14;;;;;;;21.17;8.27;;;;;;;;;;5060090;28;20044;-72
2023/04/24 00:41:39;;;;;;;24.42;7.97;;;;;;;;;;5060647;28;20057;-72
2023/04/24 00:44:05;;;;;;;18.13;7.13;;;;;;;;;;5044501;28;20025;-71
2023/04/24 00:46:31;;;;;;;19.40;7.80;;;;;;;;;;5046457;28;20318;-72
2023/04/24 00:48:58;;;;;;;20.67;8.80;;;;;;;;;;5046970;28;20029;-71
2023/04/24 00:51:24;;;;;;;21.02;8.38;;;;;;;;;;5045932;28;20021;-72
2023/04/24 00:53:50;;;;;;;23.98;8.65;;;;;;;;;;5046892;28;20039;-71
2023/04/24 00:56:16;;;;;;;19.05;8.07;;;;;;;;;;5046209;28;20129;-71
2023/04/24 00:58:43;;;;;;;17.55;7.70;;;;;;;;;;5046133;28;20112;-72
2023/04/24 01:01:09;;;;;;;18.67;8.80;;;;;;;;;;5046917;28;20033;-72
2023/04/24 01:03:36;;;;;;;20.85;10.10;;;;;;;;;;5038284;28;20021;-71
2023/04/24 01:06:03;;;;;;;25.17;9.27;;;;;;;;;;5026960;28;20025;-72
2023/04/24 01:08:29;;;;;;;22.15;8.93;;;;;;;;;;5026866;28;20091;-73
2023/04/24 01:10:56;;;;;;;23.70;9.93;;;;;;;;;;5024694;28;20041;-72
2023/04/24 01:13:22;;;;;;;15.75;7.78;;;;;;;;;;5025749;28;20047;-72
2023/04/24 01:15:48;;;;;;;26.60;10.50;;;;;;;;;;5046357;28;20414;-71
2023/04/24 01:18:14;;;;;;;24.63;8.48;;;;;;;;;;5049171;28;20021;-72
2023/04/24 01:20:40;;;;;;;23.77;9.52;;;;;;;;;;5053342;28;20040;-72
2023/04/24 01:23:07;;;;;;;25.27;9.85;;;;;;;;;;5056526;28;20405;-72
2023/04/24 01:25:33;;;;;;;23.90;10.25;;;;;;;;;;5046870;28;20056;-72
2023/04/24 01:27:59;;;;;;;20.33;8.52;;;;;;;;;;5046590;28;20037;-72
2023/04/24 01:30:25;;;;;;;23.50;10.32;;;;;;;;;;5046481;28;20020;-72
2023/04/24 01:32:51;;;;;;;20.95;8.57;;;;;;;;;;5046352;28;20047;-72
2023/04/24 01:35:17;;;;;;;24.15;9.52;;;;;;;;;;5021167;28;20038;-72
2023/04/24 01:37:42;;;;;;;23.45;9.93;;;;;;;;;;5026896;28;20044;-71
2023/04/24 01:40:08;;;;;;;18.75;8.88;;;;;;;;;;5045334;28;20041;-71
2023/04/24 01:42:34;;;;;;;21.17;8.52;;;;;;;;;;5033163;28;20028;-71
2023/04/24 01:45:01;;;;;;;20.30;9.00;;;;;;;;;;5042092;28;20021;-71
2023/04/24 01:47:27;;;;;;;26.30;8.50;;;;;;;;;;5042847;28;20047;-71
2023/04/24 01:49:52;;;;;;;20.23;8.98;;;;;;;;;;5045900;28;20032;-71
2023/04/24 01:52:18;;;;;;;15.35;7.72;;;;;;;;;;5038345;28;20107;-71
2023/04/24 01:54:44;;;;;;;21.60;10.02;;;;;;;;;;5032667;28;20024;-71
2023/04/24 01:57:10;;;;;;;24.15;9.43;;;;;;;;;;5045995;28;20059;-72
2023/04/24 01:59:36;;;;;;;17.08;7.43;;;;;;;;;;5043603;28;20457;-73
2023/04/24 02:02:02;;;;;;;21.30;8.82;;;;;;;;;;5046195;28;20715;-71
2023/04/24 02:04:28;;;;;;;21.15;8.82;;;;;;;;;;5045551;28;20029;-72
2023/04/24 02:06:53;;;;;;;17.58;7.82;;;;;;;;;;5044970;28;20086;-73
2023/04/24 02:09:19;;;;;;;25.38;8.20;;;;;;;;;;5026248;28;20036;-72
2023/04/24 02:11:44;;;;;;;22.58;7.95;;;;;;;;;;5025287;28;20197;-72
2023/04/24 02:14:09;;;;;;;19.67;6.57;;;;;;;;;;5041350;28;20103;-72
2023/04/24 02:16:35;;;;;;;24.23;7.85;;;;;;;;;;5039400;28;20037;-71
2023/04/24 02:19:02;;;;;;;18.98;8.00;;;;;;;;;;5045568;28;20614;-71
2023/04/24 02:21:27;;;;;;;20.27;9.45;;;;;;;;;;5045337;28;20044;-71
2023/04/24 02:23:53;;;;;;;17.40;7.18;;;;;;;;;;5048298;28;20056;-71
2023/04/24 02:26:19;;;;;;;18.70;8.52;;;;;;;;;;5046920;28;20033;-71
2023/04/24 02:28:44;;;;;;;16.48;6.75;;;;;;;;;;5049400;28;20033;-71
2023/04/24 02:31:09;;;;;;;20.42;8.50;;;;;;;;;;5047326;28;20041;-71
2023/04/24 02:33:35;;;;;;;17.55;7.57;;;;;;;;;;5044256;28;20021;-71
2023/04/24 02:36:02;;;;;;;22.33;8.40;;;;;;;;;;5048917;28;20025;-72
2023/04/24 02:38:28;;;;;;;25.13;9.27;;;;;;;;;;5048955;28;20029;-72
2023/04/24 02:40:54;;;;;;;19.67;8.13;;;;;;;;;;5050566;28;20035;-71
2023/04/24 02:43:19;;;;;;;18.45;7.28;;;;;;;;;;5055974;28;20052;-71
2023/04/24 02:45:44;;;;;;;19.88;8.07;;;;;;;;;;5048588;28;20025;-71
2023/04/24 02:48:10;;;;;;;18.00;7.85;;;;;;;;;;5048597;28;20020;-71
2023/04/24 02:50:35;;;;;;;21.85;7.75;;;;;;;;;;5048462;28;20040;-72
2023/04/24 02:53:01;;;;;;;18.88;7.63;;;;;;;;;;5044248;28;20633;-71
2023/04/24 02:55:26;;;;;;;21.60;9.45;;;;;;;;;;5053683;28;20037;-72
2023/04/24 02:57:51;;;;;;;22.10;8.90;;;;;;;;;;5048231;28;20028;-71
2023/04/24 03:00:17;;;;;;;18.13;7.53;;;;;;;;;;5049434;28;20580;-71
2023/04/24 03:02:43;;;;;;;21.98;7.63;;;;;;;;;;5046952;28;20037;-72
2023/04/24 03:05:08;;;;;;;19.65;7.43;;;;;;;;;;5042882;28;20025;-72
2023/04/24 03:07:34;;;;;;;22.35;8.32;;;;;;;;;;5039404;28;20033;-71
2023/04/24 03:09:59;;;;;;;16.60;6.47;;;;;;;;;;5042299;28;20685;-71
2023/04/24 03:12:25;;;;;;;18.52;9.38;;;;;;;;;;5048936;28;20387;-72
2023/04/24 03:14:50;;;;;;;22.40;8.15;;;;;;;;;;5044484;28;20045;-71
2023/04/24 03:17:16;;;;;;;18.48;8.23;;;;;;;;;;5044480;28;20029;-71
2023/04/24 03:19:41;;;;;;;16.75;7.07;;;;;;;;;;5047925;28;20079;-71
2023/04/24 03:22:08;;;;;;;20.45;8.32;;;;;;;;;;5045788;28;20036;-71
2023/04/24 03:24:34;;;;;;;19.05;9.35;;;;;;;;;;5043467;28;20024;-71
2023/04/24 03:27:00;;;;;;;23.33;9.25;;;;;;;;;;5044914;28;20021;-72
2023/04/24 03:29:25;;;;;;;20.52;9.50;;;;;;;;;;5044564;28;20549;-71
2023/04/24 03:31:51;;;;;;;23.45;11.00;;;;;;;;;;5044835;28;20059;-72
2023/04/24 03:34:16;;;;;;;29.05;11.07;;;;;;;;;;5047306;28;20525;-71
2023/04/24 03:36:41;;;;;;;27.95;12.63;;;;;;;;;;5047770;28;20047;-71
2023/04/24 03:39:07;;;;;;;27.73;11.15;;;;;;;;;;5048530;28;20017;-72
2023/04/24 03:41:32;;;;;;;27.83;12.52;;;;;;;;;;5046239;28;20032;-72
2023/04/24 03:43:58;;;;;;;24.92;10.57;;;;;;;;;;5044682;28;20045;-73
2023/04/24 03:46:23;;;;;;;29.17;13.15;;;;;;;;;;5048108;28;20025;-72
2023/04/24 03:48:49;;;;;;;28.45;12.10;;;;;;;;;;5046407;28;20075;-71
2023/04/24 03:51:14;;;;;;;31.98;13.25;;;;;;;;;;5048681;28;20025;-72
2023/04/24 03:53:40;;;;;;;33.72;13.15;;;;;;;;;;5046027;28;20115;-73
2023/04/24 03:56:05;;;;;;;37.20;14.75;;;;;;;;;;5047700;28;20037;-71
2023/04/24 03:58:31;;;;;;;39.92;16.20;;;;;;;;;;5048175;28;20029;-71
2023/04/24 04:00:57;;;;;;;35.10;14.85;;;;;;;;;;5047717;28;20029;-71
2023/04/24 04:03:23;;;;;;;36.05;14.57;;;;;;;;;;5049027;28;20021;-71
2023/04/24 04:05:48;;;;;;;30.13;12.73;;;;;;;;;;5050626;28;20029;-72
2023/04/24 04:08:14;;;;;;;25.77;12.80;;;;;;;;;;5059941;28;20033;-71
2023/04/24 04:10:40;;;;;;;21.50;8.75;;;;;;;;;;5048602;28;20039;-71
2023/04/24 04:13:06;;;;;;;27.83;11.00;;;;;;;;;;5045629;28;20036;-71
2023/04/24 04:15:31;;;;;;;30.52;12.25;;;;;;;;;;5032205;28;20388;-71
2023/04/24 04:17:57;;;;;;;21.77;9.57;;;;;;;;;;5047341;28;20040;-72
2023/04/24 04:20:22;;;;;;;25.50;9.50;;;;;;;;;;5046917;28;20033;-72
2023/04/24 04:22:48;;;;;;;33.70;14.80;;;;;;;;;;5042662;28;20033;-71
2023/04/24 04:25:13;;;;;;;28.05;12.00;;;;;;;;;;5047877;28;20063;-72
2023/04/24 04:27:39;;;;;;;29.38;11.80;;;;;;;;;;5053542;28;20025;-72
2023/04/24 04:30:05;;;;;;;24.65;10.00;;;;;;;;;;5047465;28;20025;-72
2023/04/24 04:32:33;;;;;;;31.08;13.25;;;;;;;;;;5046278;28;20503;-72
2023/04/24 04:35:02;;;;;;;31.17;12.43;;;;;;;;;;5047138;28;20087;-71
2023/04/24 04:37:35;;;;;;;19.80;9.05;;;;;;;;;;5042676;28;20029;-71
2023/04/24 04:40:01;;;;;;;20.27;8.27;;;;;;;;;;5046076;28;20029;-71
2023/04/24 04:42:27;;;;;;;29.63;9.63;;;;;;;;;;5046986;28;20083;-71
2023/04/24 04:44:53;;;;;;;39.65;15.75;;;;;;;;;;5046737;28;20060;-72
2023/04/24 04:47:22;;;;;;;34.65;13.90;;;;;;;;;;5046067;28;20032;-72
2023/04/24 04:49:47;;;;;;;40.75;14.73;;;;;;;;;;5046642;28;20044;-72
2023/04/24 04:52:13;;;;;;;39.88;16.92;;;;;;;;;;5047075;28;20029;-71
2023/04/24 04:54:38;;;;;;;37.20;13.82;;;;;;;;;;5041610;28;20021;-71
2023/04/24 04:57:04;;;;;;;39.28;15.75;;;;;;;;;;5032809;28;20021;-72
2023/04/24 04:59:29;;;;;;;40.30;15.02;;;;;;;;;;5026738;28;20140;-71
2023/04/24 05:01:54;;;;;;;42.03;15.85;;;;;;;;;;5026293;28;20033;-71
2023/04/24 05:04:20;;;;;;;36.30;13.25;;;;;;;;;;5026869;28;20117;-71
2023/04/24 05:06:47;;;;;;;37.92;15.68;;;;;;;;;;5035184;28;20032;-71
2023/04/24 05:09:12;;;;;;;37.97;15.93;;;;;;;;;;5045786;28;20032;-71
2023/04/24 05:11:37;;;;;;;34.55;13.98;;;;;;;;;;5046660;28;20025;-71
2023/04/24 05:14:03;;;;;;;33.67;12.50;;;;;;;;;;5045703;28;20091;-71
2023/04/24 05:16:28;;;;;;;42.38;16.70;;;;;;;;;;5045847;28;20063;-71
2023/04/24 05:18:53;;;;;;;35.15;14.73;;;;;;;;;;5045938;28;20032;-71
2023/04/24 05:21:19;;;;;;;38.33;16.08;;;;;;;;;;5046637;28;20025;-71
2023/04/24 05:23:44;;;;;;;36.05;15.23;;;;;;;;;;5040460;28;20538;-71
2023/04/24 05:26:10;;;;;;;31.80;14.13;;;;;;;;;;5042574;28;20163;-71
2023/04/24 05:28:36;;;;;;;38.05;13.88;;;;;;;;;;5049856;28;20036;-71
2023/04/24 05:31:02;;;;;;;33.90;15.15;;;;;;;;;;5058967;28;20048;-71
2023/04/24 05:33:28;;;;;;;36.15;14.60;;;;;;;;;;5046063;28;20522;-72
2023/04/24 05:35:53;;;;;;;36.17;15.63;;;;;;;;;;5045253;28;20112;-71
2023/04/24 05:38:19;;;;;;;39.78;15.88;;;;;;;;;;5077798;28;20037;-71
2023/04/24 05:40:45;;;;;;;41.90;16.73;;;;;;;;;;5042147;28;20025;-71
2023/04/24 05:43:11;;;;;;;33.95;14.73;;;;;;;;;;5032226;28;20044;-71
2023/04/24 05:45:36;;;;;;;35.65;16.23;;;;;;;;;;5044691;28;20021;-71
2023/04/24 05:48:02;;;;;;;38.03;17.20;;;;;;;;;;5077761;28;20029;-71
2023/04/24 05:50:28;;;;;;;40.53;16.80;;;;;;;;;;5043735;28;20037;-71
2023/04/24 05:52:53;;;;;;;37.95;16.23;;;;;;;;;;5077637;28;20037;-71
2023/04/24 05:55:19;;;;;;;33.50;14.95;;;;;;;;;;5043090;28;20033;-72
2023/04/24 05:57:45;;;;;;;26.35;11.50;;;;;;;;;;5072489;28;20032;-72
2023/04/24 06:00:11;;;;;;;30.65;14.30;;;;;;;;;;5046559;28;20055;-71
2023/04/24 06:02:38;;;;;;;31.17;13.20;;;;;;;;;;5049203;28;20769;-71
2023/04/24 06:05:04;;;;;;;33.45;15.27;;;;;;;;;;5049981;28;20029;-71
2023/04/24 06:07:30;;;;;;;32.90;13.90;;;;;;;;;;5081348;28;20108;-71
2023/04/24 06:09:56;;;;;;;29.73;13.07;;;;;;;;;;5049713;28;20654;-71
2023/04/24 06:12:21;;;;;;;29.48;13.27;;;;;;;;;;5048095;28;20545;-71
2023/04/24 06:14:47;;;;;;;33.55;12.70;;;;;;;;;;5047534;28;20523;-71
2023/04/24 06:17:13;;;;;;;29.45;13.50;;;;;;;;;;5043121;28;20033;-71
2023/04/24 06:19:38;;;;;;;31.02;15.65;;;;;;;;;;5069317;28;20026;-71
2023/04/24 06:22:04;;;;;;;33.28;13.02;;;;;;;;;;5038037;28;20028;-71
2023/04/24 06:24:29;;;;;;;25.73;12.20;;;;;;;;;;5038811;28;20017;-72
2023/04/24 06:26:57;;;;;;;28.13;11.57;;;;;;;;;;5037075;28;20052;-71
2023/04/24 06:29:22;;;;;;;30.85;15.43;;;;;;;;;;5037456;28;20116;-72
2023/04/24 06:31:47;;;;;;;26.58;13.55;;;;;;;;;;5044081;28;20186;-72
2023/04/24 06:34:13;;;;;;;29.13;14.20;;;;;;;;;;5047281;28;20036;-71
2023/04/24 06:36:38;;;;;;;31.10;13.48;;;;;;;;;;5047433;28;20032;-70
2023/04/24 06:39:04;;;;;;;29.45;14.15;;;;;;;;;;5047784;28;20021;-71
2023/04/24 06:41:29;;;;;;;32.15;13.40;;;;;;;;;;5048312;28;20037;-71
2023/04/24 06:43:55;;;;;;;31.30;12.10;;;;;;;;;;5081258;28;20029;-71
2023/04/24 06:46:25;;;;;;;28.20;12.60;;;;;;;;;;5049453;28;20568;-70
2023/04/24 06:48:55;;;;;;;33.50;15.70;;;;;;;;;;5049591;28;20048;-71
2023/04/24 06:51:22;;;;;;;32.05;13.88;;;;;;;;;;5044793;28;20100;-71
2023/04/24 06:53:48;;;;;;;27.77;12.05;;;;;;;;;;5042923;28;20515;-71
2023/04/24 06:56:13;;;;;;;36.38;14.55;;;;;;;;;;5050599;28;20052;-71
2023/04/24 06:58:38;;;;;;;31.52;14.02;;;;;;;;;;5046665;28;20056;-71
2023/04/24 07:01:04;;;;;;;27.33;13.45;;;;;;;;;;5048026;28;20033;-71
2023/04/24 07:03:30;;;;;;;37.10;16.08;;;;;;;;;;5047774;28;20024;-71
2023/04/24 07:05:55;;;;;;;30.30;13.98;;;;;;;;;;5046291;28;20501;-71
2023/04/24 07:08:21;;;;;;;34.58;15.45;;;;;;;;;;5047650;28;20033;-71
2023/04/24 07:10:47;;;;;;;33.50;15.93;;;;;;;;;;5048495;28;20032;-71
2023/04/24 07:13:12;;;;;;;28.00;12.80;;;;;;;;;;5043764;28;20834;-70
2023/04/24 07:15:38;;;;;;;38.70;16.90;;;;;;;;;;5043772;28;20045;-70
2023/04/24 07:18:03;;;;;;;29.75;13.60;;;;;;;;;;5047797;28;20035;-71
2023/04/24 07:20:29;;;;;;;27.98;14.82;;;;;;;;;;5047790;28;20829;-71
2023/04/24 07:22:54;;;;;;;32.60;14.05;;;;;;;;;;5028501;28;20039;-71
2023/04/24 07:25:20;;;;;;;28.98;14.68;;;;;;;;;;5026669;28;20034;-71
2023/04/24 07:27:45;;;;;;;25.77;15.02;;;;;;;;;;5027867;28;20025;-70
2023/04/24 07:30:11;;;;;;;28.80;13.75;;;;;;;;;;5027986;28;20028;-71
2023/04/24 07:32:36;;;;;;;33.67;14.40;;;;;;;;;;5026922;28;20033;-71
2023/04/24 07:35:02;;;;;;;25.80;12.05;;;;;;;;;;5040618;28;20777;-72
2023/04/24 07:37:28;;;;;;;30.90;12.57;;;;;;;;;;5068092;28;20032;-71
2023/04/24 07:39:54;;;;;;;26.30;13.10;;;;;;;;;;5068009;28;20032;-71
2023/04/24 07:42:20;;;;;;;24.90;13.00;;;;;;;;;;5060248;28;20033;-70
2023/04/24 07:44:47;;;;;;;27.08;11.65;;;;;;;;;;5044579;28;20587;-71
2023/04/24 07:47:14;;;;;;;22.70;11.10;;;;;;;;;;5047623;28;20124;-71
2023/04/24 07:49:44;;;;;;;23.38;11.05;;;;;;;;;;5047935;28;20040;-71
2023/04/24 07:52:09;;;;;;;24.30;11.50;;;;;;;;;;5047462;28;20029;-71
2023/04/24 07:54:34;;;;;;;20.92;9.98;;;;;;;;;;5047652;28;20037;-71
2023/04/24 07:57:00;;;;;;;25.83;12.32;;;;;;;;;;5046682;28;20445;-71
2023/04/24 07:59:26;;;;;;;24.80;11.57;;;;;;;;;;5045747;28;20032;-71
2023/04/24 08:01:51;;;;;;;23.98;11.38;;;;;;;;;;5047916;28;20033;-71
2023/04/24 08:04:17;;;;;;;24.00;12.55;;;;;;;;;;5047490;28;20029;-71
2023/04/24 08:06:43;;;;;;;23.55;10.55;;;;;;;;;;5047455;28;20029;-71
2023/04/24 08:09:08;;;;;;;23.75;8.27;;;;;;;;;;5080038;28;20028;-71
2023/04/24 08:11:34;;;;;;;22.88;11.43;;;;;;;;;;5048046;28;20033;-71
2023/04/24 08:13:59;;;;;;;22.98;11.60;;;;;;;;;;5082481;28;20480;-71
2023/04/24 08:16:25;;;;;;;24.20;10.80;;;;;;;;;;5058972;28;20094;-71
2023/04/24 08:18:50;;;;;;;18.20;8.18;;;;;;;;;;5046897;28;20074;-71
2023/04/24 08:21:18;;;;;;;18.77;7.90;;;;;;;;;;5047306;28;20103;-71
2023/04/24 08:23:44;;;;;;;20.58;10.00;;;;;;;;;;5046378;28;20041;-71
2023/04/24 08:26:10;;;;;;;16.77;8.73;;;;;;;;;;5046105;28;20037;-71
2023/04/24 08:28:36;;;;;;;15.57;7.13;;;;;;;;;;5046258;28;20052;-72
2023/04/24 08:31:01;;;;;;;21.80;10.45;;;;;;;;;;5042339;28;20759;-71
2023/04/24 08:33:27;;;;;;;27.05;11.65;;;;;;;;;;5037910;28;20414;-71
2023/04/24 08:35:52;;;;;;;19.95;10.00;;;;;;;;;;5035309;28;20120;-71
2023/04/24 08:38:18;;;;;;;21.60;9.77;;;;;;;;;;5047091;28;20064;-72
2023/04/24 08:40:45;;;;;;;23.13;10.25;;;;;;;;;;5033628;28;20029;-70
2023/04/24 08:43:12;;;;;;;16.80;7.85;;;;;;;;;;5041852;28;20029;-70
2023/04/24 08:45:38;;;;;;;17.77;8.95;;;;;;;;;;5045284;28;20031;-70
2023/04/24 08:48:04;;;;;;;16.20;8.88;;;;;;;;;;5044884;28;20033;-71
2023/04/24 08:50:30;;;;;;;20.35;10.55;;;;;;;;;;5045489;28;20061;-70
2023/04/24 08:52:56;;;;;;;19.70;10.07;;;;;;;;;;5046230;28;20053;-70
2023/04/24 08:55:24;;;;;;;22.80;11.15;;;;;;;;;;5045211;28;20115;-70
2023/04/24 08:57:52;;;;;;;17.40;8.90;;;;;;;;;;5046160;28;20108;-70
2023/04/24 09:00:19;;;;;;;18.98;9.70;;;;;;;;;;5078173;28;20017;-70
2023/04/24 09:02:48;;;;;;;15.85;9.57;;;;;;;;;;5046077;28;20033;-71
2023/04/24 09:05:14;;;;;;;21.63;7.63;;;;;;;;;;5045827;28;20048;-70
2023/04/24 09:07:43;;;;;;;13.35;8.05;;;;;;;;;;5043637;28;20067;-70
2023/04/24 09:10:08;;;;;;;15.52;7.95;;;;;;;;;;5046115;28;20048;-70
2023/04/24 09:12:34;;;;;;;18.10;8.88;;;;;;;;;;5045869;28;20449;-70
2023/04/24 09:15:03;;;;;;;15.02;7.60;;;;;;;;;;5044774;28;20040;-70
2023/04/24 09:17:28;;;;;;;14.05;6.85;;;;;;;;;;5043830;28;20025;-71
2023/04/24 09:19:55;;;;;;;17.30;10.52;;;;;;;;;;5045660;28;20040;-70
2023/04/24 09:22:21;;;;;;;16.92;9.70;;;;;;;;;;5046167;28;20047;-70
2023/04/24 09:24:47;;;;;;;11.60;6.03;;;;;;;;;;5044094;28;20020;-70
2023/04/24 09:27:13;;;;;;;13.05;6.88;;;;;;;;;;5046465;28;20131;-70
2023/04/24 09:29:38;;;;;;;20.33;10.88;;;;;;;;;;5044450;28;20041;-70
2023/04/24 09:32:25;;;;;;;22.27;9.75;;;;;;;;;;5045541;28;20039;-70
2023/04/24 09:35:09;;;;;;;22.98;11.02;;;;;;;;;;5051948;28;20032;-70
2023/04/24 09:37:37;;;;;;;21.88;9.95;;;;;;;;;;5073717;28;20048;-70
2023/04/24 09:40:13;;;;;;;21.80;10.93;;;;;;;;;;5060091;28;20063;-70
2023/04/24 09:42:39;;;;;;;23.90;10.98;;;;;;;;;;5045509;28;20035;-70
2023/04/24 09:45:11;;;;;;;24.95;11.00;;;;;;;;;;5044931;28;20028;-71
2023/04/24 09:47:40;;;;;;;26.90;11.50;;;;;;;;;;5032803;28;20038;-71
2023/04/24 09:50:16;;;;;;;25.52;12.70;;;;;;;;;;5041048;28;20279;-73
2023/04/24 09:53:23;;;;;;;21.05;10.90;;;;;;;;;;5045428;28;20033;-71
2023/04/24 09:55:50;;;;;;;29.50;12.60;;;;;;;;;;5038551;28;20140;-73
2023/04/24 09:58:15;;;;;;;25.55;12.88;;;;;;;;;;5040927;28;20037;-74
2023/04/24 10:00:41;;;;;;;26.08;11.40;;;;;;;;;;5076563;28;20032;-73
2023/04/24 10:03:06;;;;;;;26.77;10.60;;;;;;;;;;5044196;28;20017;-72
2023/04/24 10:05:36;;;;;;;24.40;12.27;;;;;;;;;;5045508;28;20147;-71
2023/04/24 10:08:13;;;;;;;26.70;12.55;;;;;;;;;;5044876;28;20040;-71
2023/04/24 10:10:42;;;;;;;26.50;11.77;;;;;;;;;;5043211;28;20037;-71
2023/04/24 10:13:10;;;;;;;28.38;14.00;;;;;;;;;;5044642;28;20033;-71
2023/04/24 10:15:36;;;;;;;25.63;11.65;;;;;;;;;;5040779;28;20049;-71
2023/04/24 10:18:06;;;;;;;18.83;11.20;;;;;;;;;;5042200;28;20033;-71
2023/04/24 10:20:32;;;;;;;23.05;9.93;;;;;;;;;;5040813;28;20065;-71
2023/04/24 10:22:59;;;;;;;19.27;7.60;;;;;;;;;;5044449;28;20036;-71
2023/04/24 10:25:27;;;;;;;21.17;9.57;;;;;;;;;;5041505;28;20033;-71
2023/04/24 10:27:57;;;;;;;26.23;11.63;;;;;;;;;;5044453;28;20032;-71
2023/04/24 10:30:23;;;;;;;16.25;8.52;;;;;;;;;;5077263;28;20734;-71
2023/04/24 10:32:48;;;;;;;14.02;6.45;;;;;;;;;;5044679;28;20510;-72
2023/04/24 10:35:15;;;;;;;14.18;7.22;;;;;;;;;;5047754;28;20041;-72
2023/04/24 10:37:53;;;;;;;17.92;8.13;;;;;;;;;;5041730;28;20037;-71
2023/04/24 10:40:26;;;;;;;19.55;8.70;;;;;;;;;;5030325;28;20033;-71
2023/04/24 10:42:55;;;;;;;16.47;8.23;;;;;;;;;;5037009;28;20033;-71
2023/04/24 10:45:21;;;;;;;17.33;8.10;;;;;;;;;;5045808;28;20700;-71
2023/04/24 10:47:52;;;;;;;15.32;7.75;;;;;;;;;;5038127;28;20038;-71
2023/04/24 10:50:18;;;;;;;17.92;7.78;;;;;;;;;;5028839;28;20068;-71
2023/04/24 10:52:46;;;;;;;18.50;8.77;;;;;;;;;;5027488;28;20069;-71
2023/04/24 10:55:15;;;;;;;19.80;9.50;;;;;;;;;;5029190;28;20030;-71
2023/04/24 10:58:04;;;;;;;15.48;5.78;;;;;;;;;;5035466;28;20032;-71
2023/04/24 11:00:29;;;;;;;21.67;8.63;;;;;;;;;;5055955;28;20021;-71
2023/04/24 11:02:55;;;;;;;15.80;7.97;;;;;;;;;;5054165;28;20036;-71
2023/04/24 11:05:22;;;;;;;20.58;8.52;;;;;;;;;;5048280;28;20029;-70
2023/04/24 11:08:16;;;;;;;19.60;9.50;;;;;;;;;;5045611;28;20102;-71
2023/04/24 11:10:46;;;;;;;19.83;9.18;;;;;;;;;;5048540;28;20036;-71
2023/04/24 11:13:15;;;;;;;20.33;10.68;;;;;;;;;;5048595;28;20025;-70
2023/04/24 11:15:43;;;;;;;15.75;6.70;;;;;;;;;;5047568;28;20045;-70
2023/04/24 11:18:15;;;;;;;18.48;7.95;;;;;;;;;;5048623;28;20147;-71
2023/04/24 11:20:44;;;;;;;18.73;9.23;;;;;;;;;;5048146;28;20033;-70
2023/04/24 11:23:12;;;;;;;15.80;8.30;;;;;;;;;;5048219;28;20049;-72
2023/04/24 11:25:37;;;;;;;19.25;9.25;;;;;;;;;;5048178;28;20048;-71
2023/04/24 11:28:05;;;;;;;17.20;8.27;;;;;;;;;;5048079;28;20461;-71
2023/04/24 11:30:33;;;;;;;18.52;8.88;;;;;;;;;;5047594;28;20020;-71
2023/04/24 11:33:03;;;;;;;16.42;8.00;;;;;;;;;;5047608;28;20120;-71
2023/04/24 11:35:30;;;;;;;16.33;8.60;;;;;;;;;;5057579;28;20602;-71
2023/04/24 11:37:56;;;;;;;14.55;7.25;;;;;;;;;;5068503;28;20032;-71
2023/04/24 11:40:22;;;;;;;16.23;7.97;;;;;;;;;;5052260;28;20029;-70
2023/04/24 11:42:50;;;;;;;11.82;6.20;;;;;;;;;;5046569;28;20021;-70
2023/04/24 11:45:24;;;;;;;14.25;7.38;;;;;;;;;;5040811;28;20021;-70
2023/04/24 11:47:50;;;;;;;17.70;9.68;;;;;;;;;;5044780;28;20029;-70
2023/04/24 11:50:17;;;;;;;16.40;8.85;;;;;;;;;;5045712;28;20063;-70
2023/04/24 11:52:45;;;;;;;22.25;9.35;;;;;;;;;;5041025;28;20033;-70
2023/04/24 11:55:14;;;;;;;17.90;9.93;;;;;;;;;;5046356;28;20797;-71
2023/04/24 11:57:44;;;;;;;18.42;8.30;;;;;;;;;;5046891;28;20494;-70
2023/04/24 12:00:21;;;;;;;18.48;8.05;;;;;;;;;;5047208;28;20494;-70
2023/04/24 12:02:49;;;;;;;18.55;8.57;;;;;;;;;;5046771;28;20066;-71
2023/04/24 12:05:26;;;;;;;14.75;8.23;;;;;;;;;;5046756;28;20082;-70
2023/04/24 12:07:52;;;;;;;18.05;9.38;;;;;;;;;;5047698;28;20036;-70
2023/04/24 12:10:26;;;;;;;16.08;8.60;;;;;;;;;;5044304;28;20536;-69
2023/04/24 12:12:52;;;;;;;17.25;8.80;;;;;;;;;;5044754;28;20021;-70
2023/04/24 12:15:20;;;;;;;16.98;8.10;;;;;;;;;;5047375;28;20124;-70
2023/04/24 12:17:46;;;;;;;17.70;9.50;;;;;;;;;;5047281;28;20082;-70
2023/04/24 12:20:14;;;;;;;16.45;9.45;;;;;;;;;;5047131;28;20053;-70
2023/04/24 12:22:45;;;;;;;17.30;9.13;;;;;;;;;;5056248;28;20165;-70
2023/04/24 12:25:11;;;;;;;18.40;9.68;;;;;;;;;;5087089;28;20033;-70
2023/04/24 12:27:36;;;;;;;19.88;8.82;;;;;;;;;;5044632;28;20039;-70
2023/04/24 12:30:04;;;;;;;20.90;8.93;;;;;;;;;;5043121;28;20592;-70
2023/04/24 12:32:30;;;;;;;19.65;8.52;;;;;;;;;;5046290;28;20067;-70
2023/04/24 12:34:56;;;;;;;17.45;7.93;;;;;;;;;;5051532;28;20068;-70
2023/04/24 12:37:25;;;;;;;21.63;10.40;;;;;;;;;;5053040;28;20060;-70
2023/04/24 12:40:11;;;;;;;20.02;9.23;;;;;;;;;;5045177;28;20413;-71
2023/04/24 12:42:43;;;;;;;24.33;10.48;;;;;;;;;;5045887;28;20038;-70
2023/04/24 12:45:09;;;;;;;16.90;6.75;;;;;;;;;;5046677;28;20033;-71
2023/04/24 12:47:36;;;;;;;20.27;8.23;;;;;;;;;;5044573;28;20037;-70
2023/04/24 12:50:02;;;;;;;19.70;9.75;;;;;;;;;;5045943;28;20724;-71
2023/04/24 12:52:29;;;;;;;24.00;11.45;;;;;;;;;;5046132;28;20029;-70
2023/04/24 12:54:58;;;;;;;13.45;7.85;;;;;;;;;;5041556;28;20037;-70
2023/04/24 12:57:25;;;;;;;17.67;8.50;;;;;;;;;;5043740;28;20560;-70
2023/04/24 12:59:50;;;;;;;18.00;8.32;;;;;;;;;;5044764;28;20502;-70
2023/04/24 13:02:19;;;;;;;16.23;7.97;;;;;;;;;;5045912;28;20122;-70
2023/04/24 13:04:48;;;;;;;16.50;7.97;;;;;;;;;;5045776;28;20735;-70
2023/04/24 13:07:14;;;;;;;14.38;7.50;;;;;;;;;;5040798;28;20286;-70
2023/04/24 13:09:41;;;;;;;14.32;7.55;;;;;;;;;;5044739;28;20071;-70
2023/04/24 13:12:07;;;;;;;13.63;6.70;;;;;;;;;;5046009;28;20029;-70
2023/04/24 13:14:33;;;;;;;14.73;7.80;;;;;;;;;;5045195;28;20049;-70
2023/04/24 13:16:58;;;;;;;15.38;6.32;;;;;;;;;;5045355;28;20045;-71
2023/04/24 13:19:28;;;;;;;12.00;6.63;;;;;;;;;;5044776;28;20578;-71
2023/04/24 13:21:55;;;;;;;14.98;7.05;;;;;;;;;;5030354;28;20064;-70
2023/04/24 13:24:24;;;;;;;15.70;7.05;;;;;;;;;;5032250;28;20105;-71
2023/04/24 13:26:50;;;;;;;16.10;7.20;;;;;;;;;;5024266;28;20475;-71
2023/04/24 13:29:15;;;;;;;13.80;7.20;;;;;;;;;;5034989;28;20033;-70
2023/04/24 13:31:41;;;;;;;15.80;7.65;;;;;;;;;;5074807;28;20028;-71
2023/04/24 13:34:07;;;;;;;15.52;7.90;;;;;;;;;;5045439;28;20025;-71
2023/04/24 13:36:32;;;;;;;13.10;6.50;;;;;;;;;;5064473;28;20019;-70
2023/04/24 13:38:58;;;;;;;13.18;7.22;;;;;;;;;;5040095;28;20029;-70
2023/04/24 13:41:23;;;;;;;16.20;6.72;;;;;;;;;;5033142;28;20257;-71
2023/04/24 13:43:49;;;;;;;19.83;10.85;;;;;;;;;;5031946;28;20044;-71
2023/04/24 13:46:14;;;;;;;19.67;9.10;;;;;;;;;;5035248;28;20075;-70
2023/04/24 13:48:40;;;;;;;22.70;8.65;;;;;;;;;;5024960;28;20033;-70
2023/04/24 13:51:05;;;;;;;18.73;8.75;;;;;;;;;;5024893;28;20029;-70
2023/04/24 13:53:32;;;;;;;13.43;5.88;;;;;;;;;;5024908;28;20117;-71
2023/04/24 13:55:57;;;;;;;20.38;9.23;;;;;;;;;;5024462;28;20041;-71
2023/04/24 13:58:23;;;;;;;18.10;7.93;;;;;;;;;;5026580;28;20140;-71
2023/04/24 14:00:48;;;;;;;27.38;11.05;;;;;;;;;;5042583;28;20025;-71
2023/04/24 14:03:13;;;;;;;18.92;9.30;;;;;;;;;;5045221;28;20032;-71
2023/04/24 14:05:39;;;;;;;20.63;9.90;;;;;;;;;;5045280;28;20029;-70
2023/04/24 14:08:05;;;;;;;19.35;8.98;;;;;;;;;;5044149;28;20037;-71
2023/04/24 14:10:31;;;;;;;20.30;8.95;;;;;;;;;;5045028;28;20052;-71
2023/04/24 14:12:56;;;;;;;18.45;8.35;;;;;;;;;;5042914;28;20029;-69
2023/04/24 14:15:21;;;;;;;20.52;10.35;;;;;;;;;;5043032;28;20041;-70
2023/04/24 14:17:48;;;;;;;24.92;10.52;;;;;;;;;;5047738;28;20119;-70
2023/04/24 14:20:13;;;;;;;20.83;10.20;;;;;;;;;;5036996;28;20044;-70